createdAt,value
2022-08-08T00:00:55.093Z,99387.91
2022-08-08T00:02:43.357Z,99384.47
2022-08-08T00:05:18.294Z,99383.91
2022-08-08T00:07:50.522Z,99381.03
2022-08-08T00:10:17.717Z,99381.78
2022-08-08T00:13:20.847Z,99383.06
2022-08-08T00:16:27.179Z,99381.84
2022-08-08T00:18:54.596Z,99370.34
2022-08-08T00:21:24.534Z,99374.19
2022-08-08T00:23:53.104Z,99371.97
2022-08-08T00:26:29.037Z,99369.22
2022-08-08T00:29:07.808Z,99354.72
2022-08-08T00:32:20.846Z,99357.19
2022-08-08T00:35:04.826Z,99349.38
2022-08-08T00:37:47.390Z,99346.50
2022-08-08T00:41:11.727Z,99344.31
2022-08-08T00:43:21.850Z,99346.63
2022-08-08T00:45:56.787Z,99350.16
2022-08-08T00:48:39.968Z,99353.37
2022-08-08T00:51:26.119Z,99354.91
2022-08-08T00:54:15.767Z,99350.94
2022-08-08T00:56:43.694Z,99345.78
2022-08-08T00:59:44.410Z,99351.91
2022-08-08T01:03:59.069Z,99348.62
2022-08-08T01:05:41.745Z,99346.91
2022-08-08T01:08:30.127Z,99345.41
2022-08-08T01:10:57.946Z,99346.66
2022-08-08T01:13:46.115Z,99344.38
2022-08-08T01:16:34.774Z,99334.75
2022-08-08T01:19:41.870Z,99340.00
2022-08-08T01:22:23.505Z,99340.94
2022-08-08T01:25:26.331Z,99340.59
2022-08-08T01:28:06.777Z,99349.06
2022-08-08T01:30:54.048Z,99344.97
2022-08-08T01:34:00.948Z,99348.06
2022-08-08T01:36:48.593Z,99337.19
2022-08-08T01:39:35.063Z,99330.63
2022-08-08T01:42:20.014Z,99329.28
2022-08-08T01:45:03.670Z,99325.81
2022-08-08T01:48:23.427Z,99324.13
2022-08-08T01:50:37.990Z,99316.94
2022-08-08T01:54:03.869Z,99324.59
2022-08-08T01:56:29.878Z,99326.12
2022-08-08T01:58:59.024Z,99322.84
2022-08-08T02:01:59.522Z,99323.81
2022-08-08T02:04:43.010Z,99330.19
2022-08-08T02:07:26.708Z,99334.31
2022-08-08T02:10:29.374Z,99332.69
2022-08-08T02:13:52.740Z,99333.31
2022-08-08T02:16:20.945Z,99332.25
2022-08-08T02:18:58.533Z,99334.66
2022-08-08T02:21:59.644Z,99333.94
2022-08-08T02:24:27.820Z,99344.94
2022-08-08T02:27:01.127Z,99348.69
2022-08-08T02:29:47.066Z,99344.41
2022-08-08T02:32:22.328Z,99349.56
2022-08-08T02:35:11.033Z,99360.94
2022-08-08T02:37:53.504Z,99360.44
2022-08-08T02:40:37.214Z,99353.94
2022-08-08T02:44:38.562Z,99353.78
2022-08-08T02:46:18.243Z,99357.12
2022-08-08T02:49:04.291Z,99360.09
2022-08-08T02:51:47.635Z,99356.28
2022-08-08T02:54:22.621Z,99352.41
2022-08-08T02:57:16.951Z,99362.25
2022-08-08T03:00:15.887Z,99362.34
2022-08-08T03:03:12.441Z,99366.84
2022-08-08T03:05:46.406Z,99365.25
2022-08-08T03:08:14.105Z,99367.69
2022-08-08T03:10:54.259Z,99363.19
2022-08-08T03:15:57.496Z,99362.09
2022-08-08T03:16:48.325Z,99371.41
2022-08-08T03:19:20.269Z,99369.94
2022-08-08T03:21:58.337Z,99374.53
2022-08-08T03:24:28.854Z,99374.03
2022-08-08T03:27:00.683Z,99375.00
2022-08-08T03:29:51.360Z,99380.25
2022-08-08T03:32:37.445Z,99369.75
2022-08-08T03:35:11.322Z,99370.06
2022-08-08T03:38:00.223Z,99370.63
2022-08-08T03:40:30.013Z,99368.84
2022-08-08T03:43:16.770Z,99373.44
2022-08-08T03:46:06.681Z,99373.03
2022-08-08T03:49:09.004Z,99370.75
2022-08-08T03:51:40.143Z,99373.12
2022-08-08T03:54:10.029Z,99376.34
2022-08-08T03:56:43.580Z,99369.97
2022-08-08T03:59:22.665Z,99370.84
2022-08-08T04:02:15.794Z,99375.00
2022-08-08T04:04:39.978Z,99377.19
2022-08-08T04:07:09.220Z,99374.56
2022-08-08T04:10:03.340Z,99377.50
2022-08-08T04:12:25.142Z,99377.22
2022-08-08T04:14:54.289Z,99390.53
2022-08-08T04:17:58.267Z,99383.94
2022-08-08T04:20:10.827Z,99386.59
2022-08-08T04:22:39.372Z,99386.03
2022-08-08T04:25:07.274Z,99394.78
2022-08-08T04:28:02.478Z,99390.00
2022-08-08T04:30:23.024Z,99398.25
2022-08-08T04:32:51.638Z,99402.00
2022-08-08T04:35:22.410Z,99398.16
2022-08-08T04:37:51.144Z,99397.06
2022-08-08T04:40:19.429Z,99398.25
2022-08-08T04:42:56.875Z,99402.81
2022-08-08T04:45:26.061Z,99401.09
2022-08-08T04:47:54.337Z,99402.06
2022-08-08T04:50:23.848Z,99403.97
2022-08-08T04:53:00.806Z,99405.56
2022-08-08T04:55:47.539Z,99400.78
2022-08-08T04:58:20.470Z,99406.56
2022-08-08T05:00:51.523Z,99410.47
2022-08-08T05:04:09.709Z,99419.13
2022-08-08T05:06:13.220Z,99422.28
2022-08-08T05:08:42.704Z,99413.13
2022-08-08T05:11:18.680Z,99413.53
2022-08-08T05:13:57.516Z,99418.03
2022-08-08T05:16:52.755Z,99410.22
2022-08-08T05:20:09.431Z,99412.56
2022-08-08T05:22:06.947Z,99409.62
2022-08-08T05:24:35.055Z,99416.19
2022-08-08T05:27:05.186Z,99421.91
2022-08-08T05:29:35.874Z,99420.53
2022-08-08T05:32:07.446Z,99427.97
2022-08-08T05:34:36.409Z,99431.44
2022-08-08T05:37:07.380Z,99425.62
2022-08-08T05:39:46.228Z,99440.28
2022-08-08T05:42:15.395Z,99439.00
2022-08-08T05:44:46.510Z,99439.88
2022-08-08T05:47:21.079Z,99428.06
2022-08-08T05:49:53.943Z,99429.09
2022-08-08T05:52:32.010Z,99421.75
2022-08-08T05:55:09.986Z,99439.53
2022-08-08T05:58:06.074Z,99435.97
2022-08-08T06:00:28.491Z,99437.56
2022-08-08T06:03:13.134Z,99423.03
2022-08-08T06:05:51.884Z,99415.78
2022-08-08T06:08:34.568Z,99423.06
2022-08-08T06:11:03.081Z,99429.97
2022-08-08T06:13:36.480Z,99439.59
2022-08-08T06:16:15.756Z,99439.63
2022-08-08T06:18:44.753Z,99442.59
2022-08-08T06:21:28.233Z,99438.56
2022-08-08T06:24:05.285Z,99433.28
2022-08-08T06:26:50.460Z,99437.59
2022-08-08T06:29:48.464Z,99440.81
2022-08-08T06:32:17.020Z,99434.22
2022-08-08T06:35:11.706Z,99427.31
2022-08-08T06:37:37.152Z,99433.31
2022-08-08T06:40:07.293Z,99441.62
2022-08-08T06:42:47.123Z,99442.25
2022-08-08T06:45:17.259Z,99441.94
2022-08-08T06:47:52.246Z,99439.88
2022-08-08T06:50:32.243Z,99447.69
2022-08-08T06:53:14.521Z,99443.69
2022-08-08T06:56:02.597Z,99441.88
2022-08-08T06:58:33.214Z,99440.03
2022-08-08T07:01:24.270Z,99445.78
2022-08-08T07:04:35.622Z,99452.75
2022-08-08T07:06:38.445Z,99442.31
2022-08-08T07:09:15.440Z,99449.22
2022-08-08T07:11:51.111Z,99435.47
2022-08-08T07:14:21.784Z,99437.91
2022-08-08T07:16:51.160Z,99432.62
2022-08-08T07:19:24.624Z,99427.28
2022-08-08T07:22:04.995Z,99443.19
2022-08-08T07:24:41.822Z,99449.69
2022-08-08T07:27:11.353Z,99453.47
2022-08-08T07:30:01.809Z,99450.78
2022-08-08T07:32:32.003Z,99452.84
2022-08-08T07:35:01.099Z,99449.25
2022-08-08T07:37:56.346Z,99452.81
2022-08-08T07:40:21.006Z,99450.56
2022-08-08T07:42:57.061Z,99452.66
2022-08-08T07:45:26.518Z,99459.13
2022-08-08T07:48:02.991Z,99461.81
2022-08-08T07:50:33.616Z,99464.69
2022-08-08T07:53:01.479Z,99464.22
2022-08-08T07:55:36.577Z,99463.47
2022-08-08T07:58:04.247Z,99476.75
2022-08-08T08:00:53.679Z,99471.06
2022-08-08T08:03:31.112Z,99468.72
2022-08-08T08:06:14.256Z,99471.16
2022-08-08T08:08:50.420Z,99475.09
2022-08-08T08:11:21.509Z,99468.34
2022-08-08T08:14:07.429Z,99470.59
2022-08-08T08:16:37.065Z,99469.44
2022-08-08T08:19:05.796Z,99468.97
2022-08-08T08:21:58.374Z,99471.09
2022-08-08T08:24:32.591Z,99472.53
2022-08-08T08:27:03.659Z,99466.31
2022-08-08T08:29:31.860Z,99466.87
2022-08-08T08:32:05.476Z,99475.97
2022-08-08T08:34:34.094Z,99470.56
2022-08-08T08:37:03.426Z,99481.97
2022-08-08T08:39:59.363Z,99489.50
2022-08-08T08:42:31.879Z,99491.69
2022-08-08T08:45:10.367Z,99499.06
2022-08-08T08:47:53.500Z,99508.31
2022-08-08T08:50:33.077Z,99503.00
2022-08-08T08:53:55.441Z,99494.09
2022-08-08T08:56:01.229Z,99491.66
2022-08-08T08:58:29.189Z,99485.22
2022-08-08T09:01:09.288Z,99494.47
2022-08-08T09:03:50.943Z,99493.09
2022-08-08T09:06:28.410Z,99497.63
2022-08-08T09:09:26.568Z,99496.47
2022-08-08T09:12:07.853Z,99498.66
2022-08-08T09:14:43.192Z,99495.34
2022-08-08T09:17:19.192Z,99492.00
2022-08-08T09:22:02.431Z,99500.59
2022-08-08T09:22:35.940Z,99508.78
2022-08-08T09:25:04.604Z,99507.19
2022-08-08T09:27:56.370Z,99503.19
2022-08-08T09:30:22.039Z,99502.09
2022-08-08T09:33:13.086Z,99494.94
2022-08-08T09:35:49.414Z,99504.56
2022-08-08T09:38:23.770Z,99497.78
2022-08-08T09:40:57.545Z,99504.03
2022-08-08T09:43:41.555Z,99500.03
2022-08-08T09:46:16.840Z,99491.31
2022-08-08T09:48:53.090Z,99491.00
2022-08-08T09:51:23.066Z,99480.56
2022-08-08T09:54:06.774Z,99477.88
2022-08-08T09:56:41.574Z,99479.50
2022-08-08T09:59:39.531Z,99486.78
2022-08-08T10:02:12.172Z,99479.12
2022-08-08T10:04:48.251Z,99478.06
2022-08-08T10:07:16.420Z,99471.88
2022-08-08T10:09:59.713Z,99477.53
2022-08-08T10:12:53.021Z,99473.34
2022-08-08T10:15:21.980Z,99487.53
2022-08-08T10:18:04.111Z,99499.31
2022-08-08T10:20:44.436Z,99503.56
2022-08-08T10:23:41.173Z,99502.44
2022-08-08T10:26:25.590Z,99496.72
2022-08-08T10:28:56.990Z,99496.72
2022-08-08T10:31:48.146Z,99492.75
2022-08-08T10:34:20.146Z,99484.28
2022-08-08T10:36:48.848Z,99480.16
2022-08-08T10:39:19.270Z,99474.09
2022-08-08T10:42:14.766Z,99476.22
2022-08-08T10:44:43.779Z,99460.72
2022-08-08T10:47:14.234Z,99464.91
2022-08-08T10:50:01.223Z,99476.81
2022-08-08T10:52:34.302Z,99493.16
2022-08-08T10:55:06.990Z,99498.91
2022-08-08T10:57:50.760Z,99495.25
2022-08-08T11:00:22.337Z,99503.97
2022-08-08T11:02:50.414Z,99510.09
2022-08-08T11:05:18.070Z,99501.16
2022-08-08T11:08:31.441Z,99489.22
2022-08-08T11:10:36.596Z,99498.84
2022-08-08T11:13:28.182Z,99501.16
2022-08-08T11:15:53.138Z,99486.84
2022-08-08T11:18:30.377Z,99501.81
2022-08-08T11:20:58.664Z,99494.41
2022-08-08T11:23:31.548Z,99486.41
2022-08-08T11:26:06.724Z,99490.16
2022-08-08T11:28:34.534Z,99485.22
2022-08-08T11:31:09.469Z,99483.66
2022-08-08T11:33:52.019Z,99492.72
2022-08-08T11:36:29.025Z,99500.63
2022-08-08T11:38:56.800Z,99488.13
2022-08-08T11:41:24.733Z,99496.00
2022-08-08T11:43:54.066Z,99491.06
2022-08-08T11:46:25.889Z,99500.19
2022-08-08T11:48:55.736Z,99507.09
2022-08-08T11:51:30.310Z,99508.72
2022-08-08T11:54:27.066Z,99500.63
2022-08-08T11:56:56.614Z,99499.97
2022-08-08T12:00:00.194Z,99502.69
2022-08-08T12:02:34.770Z,99500.28
2022-08-08T12:05:06.995Z,99507.63
2022-08-08T12:07:46.707Z,99512.59
2022-08-08T12:10:17.851Z,99510.44
2022-08-08T12:12:47.904Z,99515.19
2022-08-08T12:15:26.325Z,99510.12
2022-08-08T12:17:53.829Z,99507.66
2022-08-08T12:20:21.632Z,99509.91
2022-08-08T12:22:52.574Z,99516.84
2022-08-08T12:25:24.683Z,99516.19
2022-08-08T12:28:15.582Z,99513.19
2022-08-08T12:30:47.766Z,99503.03
2022-08-08T12:33:19.668Z,99502.94
2022-08-08T12:35:52.970Z,99504.78
2022-08-08T12:38:30.400Z,99504.34
2022-08-08T12:41:06.974Z,99513.31
2022-08-08T12:43:59.718Z,99509.84
2022-08-08T12:46:28.647Z,99526.28
2022-08-08T12:51:58.975Z,99525.66
2022-08-08T12:54:30.062Z,99531.16
2022-08-08T12:57:03.466Z,99528.47
2022-08-08T12:59:44.809Z,99517.72
2022-08-08T13:02:28.071Z,99526.03
2022-08-08T13:05:00.177Z,99530.59
2022-08-08T13:08:04.070Z,99536.22
2022-08-08T13:10:31.976Z,99525.47
2022-08-08T13:13:06.079Z,99522.50
2022-08-08T13:15:35.407Z,99519.69
2022-08-08T13:18:11.757Z,99525.03
2022-08-08T13:20:45.921Z,99526.97
2022-08-08T13:23:36.821Z,99520.72
2022-08-08T13:26:13.355Z,99515.63
2022-08-08T13:28:45.462Z,99519.78
2022-08-08T13:31:16.430Z,99516.13
2022-08-08T13:33:46.445Z,99515.47
2022-08-08T13:36:14.444Z,99517.31
2022-08-08T13:38:44.881Z,99500.25
2022-08-08T13:41:16.421Z,99498.66
2022-08-08T13:43:45.461Z,99502.72
2022-08-08T13:46:26.041Z,99501.81
2022-08-08T13:49:11.945Z,99493.22
2022-08-08T13:51:59.293Z,99504.13
2022-08-08T13:54:31.818Z,99490.03
2022-08-08T13:57:03.852Z,99488.28
2022-08-08T13:59:48.616Z,99477.91
2022-08-08T14:02:33.270Z,99476.75
2022-08-08T14:05:19.914Z,99481.50
2022-08-08T14:07:52.224Z,99471.03
2022-08-08T14:10:33.045Z,99469.53
2022-08-08T14:13:09.903Z,99473.78
2022-08-08T14:15:50.315Z,99476.41
2022-08-08T14:18:35.109Z,99479.97
2022-08-08T14:21:20.404Z,99476.94
2022-08-08T14:24:04.473Z,99486.94
2022-08-08T14:26:38.261Z,99481.16
2022-08-08T14:29:06.113Z,99479.34
2022-08-08T14:32:09.930Z,99490.78
2022-08-08T14:34:37.104Z,99485.56
2022-08-08T14:37:08.483Z,99485.72
2022-08-08T14:40:05.738Z,99485.22
2022-08-08T14:42:35.946Z,99488.44
2022-08-08T14:45:09.904Z,99485.47
2022-08-08T14:47:44.598Z,99483.69
2022-08-08T14:50:38.299Z,99488.56
2022-08-08T14:53:14.057Z,99475.19
2022-08-08T14:55:42.991Z,99477.47
2022-08-08T14:58:12.083Z,99482.47
2022-08-08T15:00:44.600Z,99480.91
2022-08-08T15:03:15.769Z,99476.84
2022-08-08T15:05:54.200Z,99487.88
2022-08-08T15:08:34.964Z,99483.44
2022-08-08T15:11:06.750Z,99485.97
2022-08-08T15:13:40.159Z,99490.16
2022-08-08T15:16:12.233Z,99489.53
2022-08-08T15:18:50.189Z,99489.00
2022-08-08T15:21:19.478Z,99495.81
2022-08-08T15:23:51.428Z,99498.13
2022-08-08T15:26:21.511Z,99493.16
2022-08-08T15:28:54.410Z,99490.22
2022-08-08T15:31:55.550Z,99493.13
2022-08-08T15:34:29.051Z,99495.12
2022-08-08T15:37:01.923Z,99499.06
2022-08-08T15:39:38.081Z,99506.16
2022-08-08T15:42:13.106Z,99493.75
2022-08-08T15:44:45.685Z,99496.06
2022-08-08T15:47:15.664Z,99490.47
2022-08-08T15:49:47.733Z,99487.19
2022-08-08T15:52:17.316Z,99492.72
2022-08-08T15:54:46.154Z,99495.59
2022-08-08T15:57:15.698Z,99491.66
2022-08-08T16:00:18.005Z,99486.62
2022-08-08T16:02:50.443Z,99491.00
2022-08-08T16:05:19.728Z,99487.56
2022-08-08T16:07:52.537Z,99490.63
2022-08-08T16:13:11.480Z,99491.91
2022-08-08T16:13:30.478Z,99479.34
2022-08-08T16:16:09.080Z,99493.66
2022-08-08T16:18:44.639Z,99489.06
2022-08-08T16:21:29.327Z,99473.72
2022-08-08T16:23:57.427Z,99470.66
2022-08-08T16:26:33.846Z,99466.59
2022-08-08T16:29:07.077Z,99472.53
2022-08-08T16:31:37.041Z,99469.09
2022-08-08T16:34:05.444Z,99470.03
2022-08-08T16:36:33.450Z,99479.69
2022-08-08T16:39:16.759Z,99477.94
2022-08-08T16:41:51.239Z,99486.12
2022-08-08T16:44:27.734Z,99479.22
2022-08-08T16:47:21.991Z,99482.87
2022-08-08T16:50:12.709Z,99480.00
2022-08-08T16:55:02.066Z,99479.41
2022-08-08T16:55:52.372Z,99491.53
2022-08-08T16:58:20.719Z,99491.28
2022-08-08T17:00:48.698Z,99492.16
2022-08-08T17:03:24.826Z,99492.44
2022-08-08T17:05:56.808Z,99493.88
2022-08-08T17:08:24.473Z,99497.34
2022-08-08T17:10:58.892Z,99495.31
2022-08-08T17:13:41.148Z,99497.63
2022-08-08T17:16:17.701Z,99506.03
2022-08-08T17:18:51.150Z,99516.16
2022-08-08T17:21:21.377Z,99513.69
2022-08-08T17:23:58.072Z,99515.88
2022-08-08T17:26:29.357Z,99529.56
2022-08-08T17:28:57.246Z,99533.44
2022-08-08T17:31:45.849Z,99533.00
2022-08-08T17:34:36.070Z,99531.03
2022-08-08T17:37:03.936Z,99530.78
2022-08-08T17:40:04.904Z,99536.19
2022-08-08T17:42:24.442Z,99531.88
2022-08-08T17:44:52.707Z,99535.84
2022-08-08T17:47:23.817Z,99523.03
2022-08-08T17:49:52.648Z,99528.22
2022-08-08T17:52:20.301Z,99533.41
2022-08-08T17:54:51.936Z,99516.78
2022-08-08T17:57:24.360Z,99515.97
2022-08-08T17:59:58.875Z,99514.78
2022-08-08T18:02:31.418Z,99523.34
2022-08-08T18:05:00.832Z,99510.75
2022-08-08T18:08:02.766Z,99520.72
2022-08-08T18:10:20.451Z,99532.53
2022-08-08T18:12:59.116Z,99531.62
2022-08-08T18:15:46.514Z,99540.97
2022-08-08T18:18:28.633Z,99541.41
2022-08-08T18:20:59.632Z,99548.16
2022-08-08T18:23:27.197Z,99546.44
2022-08-08T18:25:56.462Z,99550.84
2022-08-08T18:28:29.179Z,99548.44
2022-08-08T18:31:02.970Z,99542.69
2022-08-08T18:34:10.824Z,99547.03
2022-08-08T18:36:23.278Z,99547.38
2022-08-08T18:38:52.455Z,99559.59
2022-08-08T18:41:19.651Z,99556.91
2022-08-08T18:44:07.048Z,99546.22
2022-08-08T18:46:55.277Z,99556.94
2022-08-08T18:49:32.523Z,99558.84
2022-08-08T18:52:08.613Z,99555.25
2022-08-08T18:54:59.567Z,99562.09
2022-08-08T18:57:31.756Z,99554.59
2022-08-08T19:00:05.769Z,99549.59
2022-08-08T19:02:36.734Z,99556.81
2022-08-08T19:05:15.726Z,99559.91
2022-08-08T19:07:52.171Z,99565.87
2022-08-08T19:10:20.200Z,99573.09
2022-08-08T19:12:53.121Z,99571.56
2022-08-08T19:15:23.883Z,99571.03
2022-08-08T19:18:33.073Z,99570.25
2022-08-08T19:20:46.980Z,99571.53
2022-08-08T19:23:14.184Z,99586.97
2022-08-08T19:26:20.193Z,99578.94
2022-08-08T19:28:31.416Z,99583.16
2022-08-08T19:31:03.875Z,99583.63
2022-08-08T19:33:39.520Z,99577.88
2022-08-08T19:36:27.743Z,99586.47
2022-08-08T19:38:56.365Z,99588.06
2022-08-08T19:41:33.941Z,99581.47
2022-08-08T19:44:02.991Z,99587.06
2022-08-08T19:46:33.388Z,99577.25
2022-08-08T19:49:01.413Z,99582.87
2022-08-08T19:51:34.612Z,99579.81
2022-08-08T19:54:06.866Z,99579.84
2022-08-08T19:56:39.721Z,99587.00
2022-08-08T19:59:08.853Z,99586.50
2022-08-08T20:02:01.286Z,99583.28
2022-08-08T20:04:24.546Z,99586.94
2022-08-08T20:06:53.506Z,99579.47
2022-08-08T20:09:24.220Z,99570.91
2022-08-08T20:11:52.123Z,99580.88
2022-08-08T20:14:33.870Z,99579.31
2022-08-08T20:17:03.492Z,99568.72
2022-08-08T20:19:34.547Z,99562.38
2022-08-08T20:22:13.189Z,99572.13
2022-08-08T20:24:48.451Z,99573.53
2022-08-08T20:27:20.400Z,99565.13
2022-08-08T20:30:00.658Z,99565.38
2022-08-08T20:32:29.786Z,99567.34
2022-08-08T20:35:00.829Z,99563.41
2022-08-08T20:37:47.260Z,99558.37
2022-08-08T20:40:17.274Z,99558.31
2022-08-08T20:42:54.667Z,99559.34
2022-08-08T20:45:57.500Z,99560.56
2022-08-08T20:48:09.824Z,99555.38
2022-08-08T20:50:37.955Z,99563.59
2022-08-08T20:53:06.874Z,99562.84
2022-08-08T20:55:51.024Z,99560.56
2022-08-08T20:58:23.243Z,99552.19
2022-08-08T21:00:50.946Z,99552.75
2022-08-08T21:03:18.161Z,99554.69
2022-08-08T21:05:58.546Z,99560.59
2022-08-08T21:08:36.349Z,99554.66
2022-08-08T21:11:16.201Z,99552.91
2022-08-08T21:13:43.826Z,99554.72
2022-08-08T21:16:18.190Z,99556.19
2022-08-08T21:18:58.370Z,99558.87
2022-08-08T21:21:39.737Z,99568.69
2022-08-08T21:24:23.484Z,99573.41
2022-08-08T21:26:56.199Z,99562.00
2022-08-08T21:30:03.961Z,99566.37
2022-08-08T21:32:14.121Z,99569.56
2022-08-08T21:34:49.767Z,99575.94
2022-08-08T21:37:19.130Z,99568.34
2022-08-08T21:39:57.107Z,99572.38
2022-08-08T21:42:24.492Z,99577.38
2022-08-08T21:44:58.713Z,99587.56
2022-08-08T21:48:07.001Z,99587.47
2022-08-08T21:50:16.682Z,99586.34
2022-08-08T21:54:36.809Z,99586.56
2022-08-08T21:56:25.900Z,99586.09
2022-08-08T21:58:20.579Z,99590.44
2022-08-08T22:00:55.068Z,99589.50
2022-08-08T22:03:23.463Z,99589.53
2022-08-08T22:05:50.630Z,99595.09
2022-08-08T22:08:24.357Z,99587.66
2022-08-08T22:10:52.714Z,99587.81
2022-08-08T22:13:21.709Z,99596.25
2022-08-08T22:15:59.391Z,99598.59
2022-08-08T22:18:29.002Z,99602.22
2022-08-08T22:20:59.572Z,99609.47
2022-08-08T22:23:40.922Z,99599.56
2022-08-08T22:26:28.014Z,99597.13
2022-08-08T22:29:14.203Z,99605.72
2022-08-08T22:31:59.500Z,99595.28
2022-08-08T22:34:39.303Z,99585.69
2022-08-08T22:37:24.376Z,99584.06
2022-08-08T22:40:01.046Z,99581.87
2022-08-08T22:42:32.065Z,99580.03
2022-08-08T22:45:12.135Z,99584.75
2022-08-08T22:47:41.279Z,99578.66
2022-08-08T22:50:26.859Z,99580.28
2022-08-08T22:54:27.890Z,99577.28
2022-08-08T22:55:59.439Z,99579.03
2022-08-08T22:58:31.101Z,99578.78
2022-08-08T23:01:01.268Z,99583.13
2022-08-08T23:03:34.487Z,99587.00
2022-08-08T23:06:16.567Z,99587.00
2022-08-08T23:08:44.512Z,99578.19
2022-08-08T23:11:22.444Z,99580.78
2022-08-08T23:13:53.587Z,99581.97
2022-08-08T23:16:39.108Z,99579.25
2022-08-08T23:19:09.865Z,99581.81
2022-08-08T23:21:37.965Z,99585.75
2022-08-08T23:24:06.603Z,99579.69
2022-08-08T23:26:34.230Z,99580.22
2022-08-08T23:29:01.983Z,99591.09
2022-08-08T23:31:38.564Z,99580.88
2022-08-08T23:34:16.725Z,99582.28
2022-08-08T23:36:46.383Z,99586.44
2022-08-08T23:39:16.033Z,99593.19
2022-08-08T23:41:49.340Z,99596.03
2022-08-08T23:44:18.482Z,99602.03
2022-08-08T23:49:08.352Z,99599.25
2022-08-08T23:49:37.614Z,99608.75
2022-08-08T23:52:08.179Z,99608.88
2022-08-08T23:54:43.683Z,99611.06
2022-08-08T23:57:38.659Z,99609.19
